CYYN

Details ICAO CYYN (YYN)
Name Swift Current
Region Canada
Timezone America/Regina (UTC-6.0)
Plans Departing 3
Arriving 3
Stats Elevation 2,680 ft / 817 m (AMSL)
Location 50.291899° -107.691942°
Runways 2
Magnetic Variation 10.778° E
Sunrise 2017-12-11 15:02:16 UTC / 2017-12-11 09:02:16 Local
Sunset 2017-12-11 23:08:58 UTC / 2017-12-11 17:08:58 Local
Advertisement - Login to hide

Runways

ID Width Length Bearing (true) Bearing (mag) Surface Threshold Offset Overrun Length
04 49 ft / 15 m 2,532 ft / 772 m 45.50° 34.72° Asphalt 0 ft / 0 m 0 ft / 0 m
12 151 ft / 46 m 4,257 ft / 1,298 m 135.59° 124.81° Asphalt 0 ft / 0 m 0 ft / 0 m
22 49 ft / 15 m 2,532 ft / 772 m 225.50° 214.72° Asphalt 0 ft / 0 m 0 ft / 0 m
30 151 ft / 46 m 4,257 ft / 1,298 m 315.59° 304.81° Asphalt 0 ft / 0 m 0 ft / 0 m

Map

Weather


0- 5 10 15 20 25 30 35+ Temperature / ° C

Clouds and Precipitation
Forecast for 2017-12-11 18:00 UTC. Updated 15 minutes ago

Ground ~20,000 ft ~40,000 ft Winds

METAR

CYYN 111300Z AUTO 30010KT 9SM SCT140 M04/M06 A3029 RMK SLP291

TAF

TAF CYYN 111145Z 1112/1124 30015G25KT P6SM SCT010 BKN030 TEMPO 1112/1114 BKN010 FM111400 30015G25KT P6SM FEW010 BECMG 1118/1120 27015G25KT RMK FCST BASED ON AUTO OBS. NXT FCST BY 111800Z

Frequencies

Recorded 124.70 MHz AWOS
Tower 122.30 MHz MF
Warning: Do not use this data for real-world aviation or navigation. No guarantee of current accuracy is given.